createdAt,value
2022-10-30T00:00:59.166Z,15.39
2022-10-30T00:01:59.370Z,15.36
2022-10-30T00:02:59.477Z,15.33
2022-10-30T00:03:59.139Z,15.33
2022-10-30T00:04:59.117Z,15.31
2022-10-30T00:05:59.132Z,15.30
2022-10-30T00:06:59.097Z,15.30
2022-10-30T00:07:59.440Z,15.28
2022-10-30T00:08:59.107Z,15.23
2022-10-30T00:09:59.043Z,15.26
2022-10-30T00:10:59.039Z,15.24
2022-10-30T00:11:59.061Z,15.21
2022-10-30T00:12:59.002Z,15.21
2022-10-30T00:13:59.004Z,15.19
2022-10-30T00:14:58.981Z,15.19
2022-10-30T00:15:58.968Z,15.19
2022-10-30T00:16:59.047Z,15.17
2022-10-30T00:17:59.410Z,15.12
2022-10-30T00:18:59.008Z,15.12
2022-10-30T00:19:59.003Z,15.12
2022-10-30T00:20:59.064Z,15.11
2022-10-30T00:22:48.789Z,15.11
2022-10-30T00:23:48.681Z,15.06
2022-10-30T00:24:49.637Z,15.06
2022-10-30T00:25:49.628Z,15.06
2022-10-30T00:26:49.629Z,15.05
2022-10-30T00:27:50.658Z,15.06
2022-10-30T00:28:49.590Z,15.08
2022-10-30T00:29:49.696Z,15.06
2022-10-30T00:30:49.578Z,15.08
2022-10-30T00:31:49.605Z,15.08
2022-10-30T00:32:49.554Z,15.11
2022-10-30T00:33:49.504Z,15.08
2022-10-30T00:34:49.504Z,15.11
2022-10-30T00:35:49.535Z,15.12
2022-10-30T00:36:49.493Z,15.13
2022-10-30T00:37:49.472Z,15.12
2022-10-30T00:38:49.453Z,15.15
2022-10-30T00:39:49.429Z,15.13
2022-10-30T00:40:49.438Z,15.17
2022-10-30T00:41:49.410Z,15.17
2022-10-30T00:42:49.386Z,15.13
2022-10-30T00:43:49.401Z,15.17
2022-10-30T00:44:49.365Z,15.17
2022-10-30T00:45:49.352Z,15.15
2022-10-30T00:46:49.356Z,15.15
2022-10-30T00:47:49.329Z,15.15
2022-10-30T00:48:49.295Z,15.17
2022-10-30T00:49:49.307Z,15.17
2022-10-30T00:50:49.267Z,15.12
2022-10-30T00:51:49.332Z,15.12
2022-10-30T00:52:49.269Z,15.11
2022-10-30T00:53:49.276Z,15.12
2022-10-30T00:54:49.227Z,15.08
2022-10-30T00:55:49.199Z,15.09
2022-10-30T00:56:49.251Z,15.03
2022-10-30T00:57:49.187Z,15.03
2022-10-30T00:58:49.201Z,15.03
2022-10-30T00:59:49.160Z,14.95
2022-10-30T01:00:49.153Z,14.95
2022-10-30T01:01:49.298Z,14.93
2022-10-30T01:02:49.117Z,14.93
2022-10-30T01:03:49.086Z,14.90
2022-10-30T01:04:49.084Z,14.90
2022-10-30T01:05:49.042Z,14.87
2022-10-30T01:06:49.064Z,14.88
2022-10-30T01:07:49.104Z,14.87
2022-10-30T01:08:50.035Z,14.81
2022-10-30T01:09:49.004Z,14.80
2022-10-30T01:10:47.990Z,14.81
2022-10-30T01:11:48.980Z,14.74
2022-10-30T01:12:53.456Z,14.72
2022-10-30T01:13:48.986Z,14.69
2022-10-30T01:14:48.936Z,14.69
2022-10-30T01:15:48.956Z,14.68
2022-10-30T01:16:48.958Z,14.67
2022-10-30T01:17:48.893Z,14.65
2022-10-30T01:18:48.891Z,14.65
2022-10-30T01:19:51.087Z,14.65
2022-10-30T01:20:48.864Z,14.65
2022-10-30T01:21:48.896Z,14.64
2022-10-30T01:22:48.838Z,14.60
2022-10-30T01:23:48.883Z,14.60
2022-10-30T01:24:48.802Z,14.57
2022-10-30T01:25:48.809Z,14.54
2022-10-30T01:26:48.799Z,14.56
2022-10-30T01:27:48.757Z,14.54
2022-10-30T01:28:48.738Z,14.54
2022-10-30T01:29:48.746Z,14.54
2022-10-30T01:30:48.700Z,14.52
2022-10-30T01:31:48.731Z,14.53
2022-10-30T01:32:48.724Z,14.52
2022-10-30T01:33:48.711Z,14.52
2022-10-30T01:34:48.666Z,14.53
2022-10-30T01:35:48.640Z,14.50
2022-10-30T01:36:48.648Z,14.52
2022-10-30T01:37:48.775Z,14.52
2022-10-30T01:38:48.609Z,14.50
2022-10-30T01:39:48.588Z,14.49
2022-10-30T01:40:48.591Z,14.50
2022-10-30T01:41:48.562Z,14.50
2022-10-30T01:42:48.583Z,14.53
2022-10-30T01:43:47.526Z,14.52
2022-10-30T01:44:48.517Z,14.52
2022-10-30T01:45:48.552Z,14.53
2022-10-30T01:46:48.509Z,14.52
2022-10-30T01:47:48.473Z,14.49
2022-10-30T01:48:48.489Z,14.49
2022-10-30T01:49:48.470Z,14.52
2022-10-30T01:50:48.449Z,14.50
2022-10-30T01:51:48.469Z,14.49
2022-10-30T01:52:48.408Z,14.47
2022-10-30T01:53:48.455Z,14.46
2022-10-30T01:54:48.389Z,14.47
2022-10-30T01:55:48.450Z,14.46
2022-10-30T01:56:48.387Z,14.44
2022-10-30T01:57:48.361Z,14.44
2022-10-30T01:58:48.346Z,14.42
2022-10-30T01:59:48.320Z,14.43
2022-10-30T02:00:48.316Z,14.42
2022-10-30T02:01:48.469Z,14.39
2022-10-30T02:02:48.342Z,14.38
2022-10-30T02:03:48.289Z,14.37
2022-10-30T02:04:48.263Z,14.35
2022-10-30T02:05:48.272Z,14.37
2022-10-30T02:06:48.246Z,14.38
2022-10-30T02:07:48.251Z,14.37
2022-10-30T02:08:48.193Z,14.35
2022-10-30T02:09:48.176Z,14.34
2022-10-30T02:10:48.190Z,14.31
2022-10-30T02:11:48.152Z,14.31
2022-10-30T02:12:48.185Z,14.28
2022-10-30T02:13:48.128Z,14.29
2022-10-30T02:14:48.133Z,14.24
2022-10-30T02:15:48.101Z,14.24
2022-10-30T02:16:48.103Z,14.20
2022-10-30T02:17:48.064Z,14.19
2022-10-30T02:18:48.080Z,14.16
2022-10-30T02:19:48.085Z,14.14
2022-10-30T02:20:48.040Z,14.13
2022-10-30T02:21:48.029Z,14.10
2022-10-30T02:22:48.136Z,14.13
2022-10-30T02:23:47.976Z,14.12
2022-10-30T02:24:47.982Z,14.13
2022-10-30T02:25:47.962Z,14.12
2022-10-30T02:26:48.029Z,14.10
2022-10-30T02:27:47.932Z,14.09
2022-10-30T02:28:47.915Z,14.07
2022-10-30T02:29:47.915Z,14.09
2022-10-30T02:30:47.968Z,14.10
2022-10-30T02:31:47.884Z,14.07
2022-10-30T02:32:47.865Z,14.09
2022-10-30T02:33:47.849Z,14.12
2022-10-30T02:34:47.926Z,14.06
2022-10-30T02:35:47.840Z,14.07
2022-10-30T02:36:47.818Z,14.06
2022-10-30T02:37:47.810Z,14.04
2022-10-30T02:38:47.796Z,14.06
2022-10-30T02:39:47.768Z,14.07
2022-10-30T02:40:47.756Z,14.06
2022-10-30T02:41:47.770Z,14.06
2022-10-30T02:42:47.729Z,14.06
2022-10-30T02:43:47.732Z,14.04
2022-10-30T02:44:46.700Z,14.06
2022-10-30T02:45:47.680Z,14.02
2022-10-30T02:46:47.690Z,14.01
2022-10-30T02:47:47.688Z,13.99
2022-10-30T02:48:47.659Z,14.01
2022-10-30T02:49:47.652Z,14.01
2022-10-30T02:50:47.602Z,13.99
2022-10-30T02:51:47.618Z,13.96
2022-10-30T02:52:47.601Z,13.99
2022-10-30T02:53:47.570Z,13.96
2022-10-30T02:54:47.563Z,13.99
2022-10-30T02:55:47.559Z,13.98
2022-10-30T02:56:47.626Z,13.99
2022-10-30T02:57:47.536Z,13.98
2022-10-30T02:58:47.517Z,13.98
2022-10-30T02:59:47.518Z,13.99
2022-10-30T03:00:47.584Z,13.99
2022-10-30T03:01:47.683Z,13.92
2022-10-30T03:02:47.560Z,13.94
2022-10-30T03:03:47.488Z,13.89
2022-10-30T03:04:47.468Z,13.88
2022-10-30T03:05:47.418Z,13.87
2022-10-30T03:06:47.429Z,13.84
2022-10-30T03:07:47.400Z,13.80
2022-10-30T03:08:47.393Z,13.81
2022-10-30T03:09:47.442Z,13.80
2022-10-30T03:10:47.353Z,13.77
2022-10-30T03:11:47.347Z,13.77
2022-10-30T03:12:47.346Z,13.73
2022-10-30T03:13:47.313Z,13.74
2022-10-30T03:14:47.302Z,13.71
2022-10-30T03:15:47.272Z,13.70
2022-10-30T03:16:47.272Z,13.63
2022-10-30T03:17:47.266Z,13.67
2022-10-30T03:18:47.267Z,13.62
2022-10-30T03:19:47.221Z,13.59
2022-10-30T03:20:47.211Z,13.56
2022-10-30T03:21:47.216Z,13.55
2022-10-30T03:22:47.184Z,13.52
2022-10-30T03:23:47.170Z,13.47
2022-10-30T03:24:47.214Z,13.49
2022-10-30T03:25:47.144Z,13.46
2022-10-30T03:26:47.140Z,13.43
2022-10-30T03:27:47.125Z,13.41
2022-10-30T03:28:47.119Z,13.38
2022-10-30T03:29:47.084Z,13.40
2022-10-30T03:30:47.084Z,13.38
2022-10-30T03:31:47.072Z,13.38
2022-10-30T03:32:47.061Z,13.37
2022-10-30T03:33:47.031Z,13.36
2022-10-30T03:34:47.043Z,13.38
2022-10-30T03:35:47.008Z,13.38
2022-10-30T03:36:46.995Z,13.36
2022-10-30T03:37:46.982Z,13.33
2022-10-30T03:38:47.003Z,13.33
2022-10-30T03:39:46.947Z,13.30
2022-10-30T03:40:46.947Z,13.33
2022-10-30T03:41:46.956Z,13.33
2022-10-30T03:42:46.911Z,13.30
2022-10-30T03:43:46.899Z,13.32
2022-10-30T03:44:46.884Z,13.30
2022-10-30T03:45:46.879Z,13.29
2022-10-30T03:46:46.861Z,13.30
2022-10-30T03:47:46.848Z,13.27
2022-10-30T03:48:46.863Z,13.22
2022-10-30T03:49:46.841Z,13.24
2022-10-30T03:50:46.799Z,13.22
2022-10-30T03:51:46.800Z,13.21
2022-10-30T03:52:46.778Z,13.21
2022-10-30T03:53:46.800Z,13.22
2022-10-30T03:54:46.769Z,13.22
2022-10-30T03:55:46.741Z,13.21
2022-10-30T03:56:46.728Z,13.24
2022-10-30T03:57:46.740Z,13.21
2022-10-30T03:58:46.728Z,13.21
2022-10-30T03:59:46.687Z,13.20
2022-10-30T04:00:46.744Z,13.20
2022-10-30T04:01:46.860Z,13.21
2022-10-30T04:02:46.682Z,13.18
2022-10-30T04:03:46.658Z,13.17
2022-10-30T04:04:46.659Z,13.18
2022-10-30T04:05:46.590Z,13.15
2022-10-30T04:06:46.596Z,13.17
2022-10-30T04:07:46.626Z,13.15
2022-10-30T04:08:46.568Z,13.15
2022-10-30T04:09:46.541Z,13.11
2022-10-30T04:10:46.622Z,13.11
2022-10-30T04:11:46.514Z,13.09
2022-10-30T04:12:46.562Z,13.06
2022-10-30T04:13:46.487Z,13.04
2022-10-30T04:14:46.474Z,12.99
2022-10-30T04:15:47.472Z,12.97
2022-10-30T04:16:46.462Z,13.00
2022-10-30T04:17:46.454Z,12.97
2022-10-30T04:18:46.460Z,12.99
2022-10-30T04:19:46.457Z,12.95
2022-10-30T04:20:46.400Z,12.89
2022-10-30T04:21:46.382Z,12.88
2022-10-30T04:22:46.412Z,12.85
2022-10-30T04:23:46.350Z,12.82
2022-10-30T04:24:46.374Z,12.82
2022-10-30T04:25:46.389Z,12.81
2022-10-30T04:26:46.315Z,12.77
2022-10-30T04:27:46.399Z,12.78
2022-10-30T04:28:46.359Z,12.74
2022-10-30T04:29:46.273Z,12.74
2022-10-30T04:30:46.266Z,12.74
2022-10-30T04:31:46.315Z,12.70
2022-10-30T04:32:46.229Z,12.71
2022-10-30T04:33:46.297Z,12.70
2022-10-30T04:34:46.212Z,12.69
2022-10-30T04:35:46.189Z,12.67
2022-10-30T04:36:46.282Z,12.69
2022-10-30T04:37:46.185Z,12.64
2022-10-30T04:38:46.166Z,12.66
2022-10-30T04:39:46.547Z,12.62
2022-10-30T04:40:46.139Z,12.57
2022-10-30T04:41:46.120Z,12.56
2022-10-30T04:42:46.109Z,12.52
2022-10-30T04:43:46.085Z,12.52
2022-10-30T04:44:46.070Z,12.51
2022-10-30T04:45:46.076Z,12.51
2022-10-30T04:46:46.072Z,12.49
2022-10-30T04:47:46.056Z,12.46
2022-10-30T04:48:46.020Z,12.46
2022-10-30T04:49:46.010Z,12.45
2022-10-30T04:50:46.072Z,12.45
2022-10-30T04:51:45.984Z,12.44
2022-10-30T04:52:45.960Z,12.44
2022-10-30T04:53:45.963Z,12.41
2022-10-30T04:54:45.961Z,12.39
2022-10-30T04:55:45.926Z,12.37
2022-10-30T04:56:45.914Z,12.38
2022-10-30T04:57:45.935Z,12.34
2022-10-30T04:58:45.906Z,12.33
2022-10-30T04:59:45.884Z,12.30
2022-10-30T05:00:45.896Z,12.29
2022-10-30T05:01:46.044Z,12.26
2022-10-30T05:02:45.861Z,12.24
2022-10-30T05:03:48.094Z,12.24
2022-10-30T05:04:45.845Z,12.21
2022-10-30T05:05:45.806Z,12.20
2022-10-30T05:06:45.800Z,12.16
2022-10-30T05:07:45.806Z,12.15
2022-10-30T05:08:45.749Z,12.19
2022-10-30T05:09:45.769Z,12.13
2022-10-30T05:10:45.726Z,12.12
2022-10-30T05:11:45.738Z,12.15
2022-10-30T05:12:45.740Z,12.16
2022-10-30T05:13:45.718Z,12.15
2022-10-30T05:14:45.680Z,12.13
2022-10-30T05:15:45.664Z,12.12
2022-10-30T05:16:44.646Z,12.11
2022-10-30T05:17:45.651Z,12.09
2022-10-30T05:18:45.642Z,12.09
2022-10-30T05:19:45.632Z,12.09
2022-10-30T05:20:45.647Z,12.09
2022-10-30T05:21:45.592Z,12.08
2022-10-30T05:22:45.661Z,12.06
2022-10-30T05:23:45.638Z,12.06
2022-10-30T05:24:45.554Z,12.05
2022-10-30T05:25:45.610Z,12.04
2022-10-30T05:26:45.537Z,11.99
2022-10-30T05:27:45.531Z,12.01
2022-10-30T05:28:45.507Z,11.96
2022-10-30T05:29:45.519Z,11.96
2022-10-30T05:30:45.499Z,11.96
2022-10-30T05:31:45.682Z,11.94
2022-10-30T05:32:45.457Z,11.89
2022-10-30T05:33:45.486Z,11.85
2022-10-30T05:34:45.475Z,11.83
2022-10-30T05:35:45.412Z,11.83
2022-10-30T05:36:45.418Z,11.82
2022-10-30T05:37:45.385Z,11.77
2022-10-30T05:38:45.366Z,11.78
2022-10-30T05:39:45.374Z,11.72
2022-10-30T05:40:45.336Z,11.74
2022-10-30T05:41:45.381Z,11.71
2022-10-30T05:42:45.346Z,11.74
2022-10-30T05:43:45.383Z,11.72
2022-10-30T05:45:00.561Z,11.72
2022-10-30T05:45:45.308Z,11.74
2022-10-30T05:46:45.330Z,11.74
2022-10-30T05:47:45.284Z,11.72
2022-10-30T05:48:45.250Z,11.72
2022-10-30T05:49:45.225Z,11.71
2022-10-30T05:50:45.233Z,11.70
2022-10-30T05:51:45.230Z,11.70
2022-10-30T05:52:45.186Z,11.67
2022-10-30T05:53:45.250Z,11.64
2022-10-30T05:54:45.238Z,11.64
2022-10-30T05:55:45.331Z,11.62
2022-10-30T05:56:45.172Z,11.65
2022-10-30T05:57:45.116Z,11.64
2022-10-30T05:58:45.228Z,11.65
2022-10-30T05:59:45.128Z,11.65
2022-10-30T06:00:45.076Z,11.64
2022-10-30T06:02:45.177Z,11.62
2022-10-30T06:03:45.067Z,11.64
2022-10-30T06:04:45.033Z,11.61
2022-10-30T06:05:45.108Z,11.61
2022-10-30T06:06:45.187Z,11.64
2022-10-30T06:07:44.992Z,11.64
2022-10-30T06:08:44.992Z,11.65
2022-10-30T06:09:44.999Z,11.64
2022-10-30T06:10:44.926Z,11.62
2022-10-30T06:11:44.925Z,11.61
2022-10-30T06:12:45.052Z,11.57
2022-10-30T06:13:44.967Z,11.59
2022-10-30T06:14:44.885Z,11.56
2022-10-30T06:15:44.870Z,11.56
2022-10-30T06:16:44.859Z,11.57
2022-10-30T06:17:44.862Z,11.50
2022-10-30T06:18:44.869Z,11.52
2022-10-30T06:19:44.862Z,11.49
2022-10-30T06:20:44.805Z,11.49
2022-10-30T06:21:44.862Z,11.47
2022-10-30T06:22:44.783Z,11.43
2022-10-30T06:23:44.782Z,11.44
2022-10-30T06:24:44.767Z,11.43
2022-10-30T06:25:44.738Z,11.39
2022-10-30T06:26:44.809Z,11.39
2022-10-30T06:27:44.723Z,11.39
2022-10-30T06:28:44.728Z,11.41
2022-10-30T06:29:44.687Z,11.43
2022-10-30T06:30:44.660Z,11.44
2022-10-30T06:31:44.661Z,11.46
2022-10-30T06:32:44.655Z,11.44
2022-10-30T06:33:44.638Z,11.44
2022-10-30T06:34:44.621Z,11.44
2022-10-30T06:35:44.618Z,11.46
2022-10-30T06:36:44.675Z,11.46
2022-10-30T06:37:44.592Z,11.44
2022-10-30T06:38:44.558Z,11.44
2022-10-30T06:39:44.621Z,11.44
2022-10-30T06:40:44.543Z,11.46
2022-10-30T06:41:44.698Z,11.49
2022-10-30T06:42:44.529Z,11.52
2022-10-30T06:43:44.519Z,11.53
2022-10-30T06:44:44.513Z,11.53
2022-10-30T06:45:47.363Z,11.52
2022-10-30T06:46:44.466Z,11.53
2022-10-30T06:47:44.457Z,11.52
2022-10-30T06:48:44.455Z,11.53
2022-10-30T06:49:44.414Z,11.54
2022-10-30T06:50:44.553Z,11.54
2022-10-30T06:51:44.502Z,11.56
2022-10-30T06:52:44.384Z,11.57
2022-10-30T06:53:45.949Z,11.61
2022-10-30T06:54:46.336Z,11.62
2022-10-30T06:55:44.354Z,11.67
2022-10-30T06:56:45.627Z,11.70
2022-10-30T06:57:44.339Z,11.70
2022-10-30T06:58:44.334Z,11.71
2022-10-30T06:59:44.304Z,11.72
2022-10-30T07:00:44.386Z,11.77
2022-10-30T07:01:44.372Z,11.77
2022-10-30T07:02:44.275Z,11.78
2022-10-30T07:03:44.466Z,11.80
2022-10-30T07:04:44.267Z,11.82
2022-10-30T07:05:44.220Z,11.80
2022-10-30T07:06:44.193Z,11.83
2022-10-30T07:07:44.295Z,11.85
2022-10-30T07:08:44.184Z,11.86
2022-10-30T07:09:44.175Z,11.87
2022-10-30T07:10:44.145Z,11.89
2022-10-30T07:11:44.152Z,11.89
2022-10-30T07:12:44.123Z,11.96
2022-10-30T07:13:44.129Z,11.94
2022-10-30T07:14:44.087Z,11.96
2022-10-30T07:15:44.138Z,11.97
2022-10-30T07:16:44.142Z,11.97
2022-10-30T07:17:44.068Z,12.02
2022-10-30T07:18:44.039Z,12.02
2022-10-30T07:19:44.065Z,12.01
2022-10-30T07:20:44.030Z,12.05
2022-10-30T07:21:44.001Z,12.08
2022-10-30T07:22:44.096Z,12.09
2022-10-30T07:23:43.987Z,12.11
2022-10-30T07:24:42.968Z,12.13
2022-10-30T07:25:43.956Z,12.15
2022-10-30T07:26:44.026Z,12.16
2022-10-30T07:27:43.921Z,12.19
2022-10-30T07:28:43.926Z,12.20
2022-10-30T07:29:43.926Z,12.23
2022-10-30T07:30:43.901Z,12.24
2022-10-30T07:31:57.737Z,12.26
2022-10-30T07:32:43.917Z,12.29
2022-10-30T07:33:43.853Z,12.29
2022-10-30T07:34:43.847Z,12.30
2022-10-30T07:35:43.821Z,12.33
2022-10-30T07:36:43.882Z,12.37
2022-10-30T07:37:43.871Z,12.37
2022-10-30T07:38:43.767Z,12.42
2022-10-30T07:39:43.891Z,12.44
2022-10-30T07:40:43.772Z,12.45
2022-10-30T07:41:49.791Z,12.48
2022-10-30T07:42:43.744Z,12.48
2022-10-30T07:43:43.726Z,12.52
2022-10-30T07:44:43.888Z,12.56
2022-10-30T07:45:43.676Z,12.59
2022-10-30T07:46:43.785Z,12.63
2022-10-30T07:47:43.753Z,12.63
2022-10-30T07:48:43.650Z,12.69
2022-10-30T07:49:43.617Z,12.70
2022-10-30T07:50:43.667Z,12.75
2022-10-30T07:51:43.605Z,12.78
2022-10-30T07:52:43.696Z,12.82
2022-10-30T07:53:43.703Z,12.87
2022-10-30T07:54:43.559Z,12.92
2022-10-30T07:55:43.555Z,12.96
2022-10-30T07:56:43.562Z,13.00
2022-10-30T07:57:43.537Z,13.04
2022-10-30T07:58:45.635Z,13.07
2022-10-30T07:59:43.534Z,13.14
2022-10-30T08:00:43.543Z,13.17
2022-10-30T08:01:43.620Z,13.22
2022-10-30T08:02:43.597Z,13.25
2022-10-30T08:03:43.457Z,13.30
2022-10-30T08:04:43.431Z,13.33
2022-10-30T08:05:43.468Z,13.40
2022-10-30T08:06:43.416Z,13.41
2022-10-30T08:07:43.406Z,13.46
2022-10-30T08:08:43.757Z,13.52
2022-10-30T08:09:43.440Z,13.58
2022-10-30T08:10:43.432Z,13.59
2022-10-30T08:11:43.336Z,13.70
2022-10-30T08:12:43.317Z,13.73
2022-10-30T08:13:43.319Z,13.79
2022-10-30T08:14:43.338Z,13.81
2022-10-30T08:15:43.331Z,13.87
2022-10-30T08:16:43.272Z,13.91
2022-10-30T08:17:43.323Z,13.95
2022-10-30T08:18:43.252Z,13.99
2022-10-30T08:19:43.270Z,14.06
2022-10-30T08:20:43.355Z,14.09
2022-10-30T08:21:43.413Z,14.14
2022-10-30T08:22:43.205Z,14.21
2022-10-30T08:23:43.287Z,14.27
2022-10-30T08:24:43.176Z,14.31
2022-10-30T08:25:43.177Z,14.37
2022-10-30T08:26:43.131Z,14.43
2022-10-30T08:27:43.117Z,14.47
2022-10-30T08:28:43.157Z,14.53
2022-10-30T08:29:43.092Z,14.56
2022-10-30T08:30:43.071Z,14.62
2022-10-30T08:31:43.082Z,14.67
2022-10-30T08:32:43.057Z,14.69
2022-10-30T08:33:43.047Z,14.75
2022-10-30T08:34:43.020Z,14.80
2022-10-30T08:35:43.016Z,14.86
2022-10-30T08:36:46.735Z,14.87
2022-10-30T08:37:42.987Z,14.93
2022-10-30T08:38:42.994Z,14.98
2022-10-30T08:39:42.964Z,15.02
2022-10-30T08:40:42.943Z,15.08
2022-10-30T08:41:42.943Z,15.13
2022-10-30T08:42:42.916Z,15.19
2022-10-30T08:43:42.914Z,15.24
2022-10-30T08:44:41.901Z,15.31
2022-10-30T08:45:42.916Z,15.36
2022-10-30T08:46:42.855Z,15.42
2022-10-30T08:47:42.929Z,15.48
2022-10-30T08:48:42.843Z,15.51
2022-10-30T08:49:42.847Z,15.56
2022-10-30T08:50:42.800Z,15.66
2022-10-30T08:51:42.822Z,15.72
2022-10-30T08:52:42.828Z,15.81
2022-10-30T08:53:42.903Z,15.86
2022-10-30T08:54:42.758Z,15.92
2022-10-30T08:55:42.763Z,15.97
2022-10-30T08:56:42.780Z,16.06
2022-10-30T08:57:42.735Z,16.14
2022-10-30T08:58:42.720Z,16.16
2022-10-30T08:59:42.710Z,16.25
2022-10-30T09:00:42.695Z,16.31
2022-10-30T09:01:42.785Z,16.33
2022-10-30T09:02:42.836Z,16.44
2022-10-30T09:03:42.659Z,16.50
2022-10-30T09:04:42.637Z,16.55
2022-10-30T09:05:42.617Z,16.62
2022-10-30T09:06:42.614Z,16.67
2022-10-30T09:07:42.583Z,16.73
2022-10-30T09:08:42.595Z,16.78
2022-10-30T09:09:42.567Z,16.83
2022-10-30T09:10:42.586Z,16.90
2022-10-30T09:11:42.549Z,16.95
2022-10-30T09:12:42.526Z,17.04
2022-10-30T09:13:42.523Z,17.10
2022-10-30T09:14:42.525Z,17.14
2022-10-30T09:15:42.480Z,17.20
2022-10-30T09:16:42.492Z,17.28
2022-10-30T09:17:42.479Z,17.30
2022-10-30T09:18:42.459Z,17.38
2022-10-30T09:19:42.478Z,17.46
2022-10-30T09:20:42.424Z,17.48
2022-10-30T09:21:42.431Z,17.51
2022-10-30T09:22:42.469Z,17.59
2022-10-30T09:23:42.457Z,17.64
2022-10-30T09:24:42.417Z,17.70
2022-10-30T09:25:42.364Z,17.74
2022-10-30T09:26:42.365Z,17.82
2022-10-30T09:27:42.357Z,17.87
2022-10-30T09:28:42.336Z,17.95
2022-10-30T09:29:42.326Z,18.00
2022-10-30T09:30:42.323Z,18.07
2022-10-30T09:31:42.287Z,18.13
2022-10-30T09:32:42.291Z,18.18
2022-10-30T09:33:42.375Z,18.25
2022-10-30T09:34:42.244Z,18.33
2022-10-30T09:35:42.245Z,18.37
2022-10-30T09:36:42.243Z,18.46
2022-10-30T09:37:42.212Z,18.52
2022-10-30T09:38:42.208Z,18.57
2022-10-30T09:39:42.206Z,18.62
2022-10-30T09:40:42.163Z,18.70
2022-10-30T09:41:44.748Z,18.76
2022-10-30T09:42:42.208Z,18.83
2022-10-30T09:43:42.138Z,18.91
2022-10-30T09:44:43.766Z,18.97
2022-10-30T09:45:42.123Z,19.05
2022-10-30T09:46:42.113Z,19.11
2022-10-30T09:47:42.088Z,19.17
2022-10-30T09:48:42.059Z,19.23
2022-10-30T09:49:42.048Z,19.28
2022-10-30T09:50:42.042Z,19.33
2022-10-30T09:51:42.022Z,19.35
2022-10-30T09:52:41.009Z,19.35
2022-10-30T09:53:42.005Z,19.33
2022-10-30T09:54:41.980Z,19.33
2022-10-30T09:55:41.980Z,19.38
2022-10-30T09:56:42.041Z,19.39
2022-10-30T09:57:41.947Z,19.40
2022-10-30T09:58:41.935Z,19.38
2022-10-30T09:59:41.911Z,19.42
2022-10-30T10:00:41.928Z,19.47
2022-10-30T10:01:42.127Z,19.46
2022-10-30T10:02:42.084Z,19.48
2022-10-30T10:03:41.963Z,19.50
2022-10-30T10:04:41.876Z,19.50
2022-10-30T10:05:41.860Z,19.51
2022-10-30T10:06:41.821Z,19.51
2022-10-30T10:07:41.841Z,19.54
2022-10-30T10:08:41.817Z,19.58
2022-10-30T10:09:41.833Z,19.68
2022-10-30T10:10:41.775Z,19.70
2022-10-30T10:11:41.758Z,19.80
2022-10-30T10:12:41.765Z,19.88
2022-10-30T10:13:41.747Z,19.91
2022-10-30T10:14:41.735Z,19.98
2022-10-30T10:15:41.722Z,20.03
2022-10-30T10:16:41.718Z,20.06
2022-10-30T10:17:41.722Z,20.10
2022-10-30T10:18:41.686Z,20.16
2022-10-30T10:19:41.666Z,20.20
2022-10-30T10:20:41.652Z,20.28
2022-10-30T10:21:41.694Z,20.28
2022-10-30T10:22:41.639Z,20.33
2022-10-30T10:23:41.604Z,20.33
2022-10-30T10:24:41.605Z,20.33
2022-10-30T10:25:41.579Z,20.33
2022-10-30T10:26:41.582Z,20.38
2022-10-30T10:27:41.566Z,20.46
2022-10-30T10:28:41.542Z,20.51
2022-10-30T10:29:41.522Z,20.56
2022-10-30T10:30:41.522Z,20.59
2022-10-30T10:31:41.493Z,20.65
2022-10-30T10:32:41.482Z,20.69
2022-10-30T10:33:41.479Z,20.77
2022-10-30T10:34:41.628Z,20.79
2022-10-30T10:35:41.439Z,20.86
2022-10-30T10:36:41.440Z,20.89
2022-10-30T10:37:41.448Z,20.96
2022-10-30T10:38:41.400Z,21.04
2022-10-30T10:39:41.385Z,21.08
2022-10-30T10:40:41.392Z,21.16
2022-10-30T10:41:41.372Z,21.23
2022-10-30T10:42:41.390Z,21.26
2022-10-30T10:43:41.326Z,21.30
2022-10-30T10:44:41.322Z,21.34
2022-10-30T10:45:41.329Z,21.39
2022-10-30T10:46:41.285Z,21.39
2022-10-30T10:47:41.276Z,21.39
2022-10-30T10:48:41.277Z,21.42
2022-10-30T10:49:41.265Z,21.44
2022-10-30T10:50:41.248Z,21.44
2022-10-30T10:51:41.207Z,21.44
2022-10-30T10:52:41.233Z,21.45
2022-10-30T10:53:41.189Z,21.46
2022-10-30T10:54:41.178Z,21.44
2022-10-30T10:55:41.168Z,21.42
2022-10-30T10:56:41.169Z,21.44
2022-10-30T10:57:41.141Z,21.42
2022-10-30T10:58:41.220Z,21.39
2022-10-30T10:59:41.114Z,21.36
2022-10-30T11:00:40.096Z,21.34
2022-10-30T11:01:41.278Z,21.38
2022-10-30T11:02:41.190Z,21.41
2022-10-30T11:03:41.075Z,21.46
2022-10-30T11:04:41.050Z,21.51
2022-10-30T11:05:41.043Z,21.54
2022-10-30T11:06:41.023Z,21.61
2022-10-30T11:07:40.994Z,21.64
2022-10-30T11:08:40.994Z,21.66
2022-10-30T11:09:40.988Z,21.69
2022-10-30T11:10:40.957Z,21.76
2022-10-30T11:11:40.938Z,21.81
2022-10-30T11:12:40.934Z,21.85
2022-10-30T11:13:40.923Z,21.92
2022-10-30T11:14:40.928Z,21.97
2022-10-30T11:15:40.876Z,21.99
2022-10-30T11:16:40.881Z,22.01
2022-10-30T11:17:40.877Z,22.01
2022-10-30T11:18:40.866Z,22.04
2022-10-30T11:19:40.827Z,22.02
2022-10-30T11:20:40.865Z,22.01
2022-10-30T11:21:40.805Z,21.98
2022-10-30T11:22:40.791Z,21.98
2022-10-30T11:23:40.794Z,22.02
2022-10-30T11:24:40.778Z,22.07
2022-10-30T11:25:40.742Z,22.13
2022-10-30T11:26:40.752Z,22.13
2022-10-30T11:27:40.723Z,22.14
2022-10-30T11:28:40.750Z,22.19
2022-10-30T11:29:40.704Z,22.20
2022-10-30T11:30:40.701Z,22.22
2022-10-30T11:31:40.748Z,22.28
2022-10-30T11:32:40.703Z,22.27
2022-10-30T11:33:40.682Z,22.31
2022-10-30T11:34:40.634Z,22.35
2022-10-30T11:35:40.619Z,22.35
2022-10-30T11:36:40.613Z,22.38
2022-10-30T11:37:40.591Z,22.41
2022-10-30T11:38:40.580Z,22.47
2022-10-30T11:39:40.577Z,22.53
2022-10-30T11:40:40.570Z,22.44
2022-10-30T11:41:40.545Z,22.52
2022-10-30T11:42:40.522Z,22.52
2022-10-30T11:43:40.600Z,22.54
2022-10-30T11:44:40.765Z,22.57
2022-10-30T11:45:40.485Z,22.62
2022-10-30T11:46:40.479Z,22.67
2022-10-30T11:47:40.475Z,22.69
2022-10-30T11:48:40.449Z,22.71
2022-10-30T11:49:40.437Z,22.78
2022-10-30T11:50:40.422Z,22.80
2022-10-30T11:51:40.568Z,22.83
2022-10-30T11:52:40.407Z,22.87
2022-10-30T11:53:40.368Z,22.89
2022-10-30T11:54:40.364Z,22.92
2022-10-30T11:55:40.356Z,22.94
2022-10-30T11:56:40.347Z,22.96
2022-10-30T11:57:40.326Z,22.97
2022-10-30T11:58:40.325Z,23.01
2022-10-30T11:59:40.300Z,23.04
2022-10-30T12:00:40.290Z,23.09
2022-10-30T12:01:40.296Z,23.09
2022-10-30T12:02:40.259Z,23.12
2022-10-30T12:03:40.265Z,23.14
2022-10-30T12:04:40.244Z,23.17
2022-10-30T12:05:41.631Z,23.17
2022-10-30T12:06:40.204Z,23.12
2022-10-30T12:07:40.189Z,23.07
2022-10-30T12:08:40.193Z,23.05
2022-10-30T12:09:40.167Z,23.04
2022-10-30T12:10:40.174Z,23.04
2022-10-30T12:11:40.137Z,23.07
2022-10-30T12:12:40.134Z,23.05
2022-10-30T12:13:40.105Z,23.08
2022-10-30T12:14:40.104Z,23.04
2022-10-30T12:15:40.075Z,23.05
2022-10-30T12:16:40.086Z,23.08
2022-10-30T12:17:40.051Z,23.04
2022-10-30T12:18:40.064Z,22.99
2022-10-30T12:19:40.049Z,22.96
2022-10-30T12:20:40.019Z,22.96
2022-10-30T12:21:40.012Z,22.99
2022-10-30T12:22:39.988Z,23.01
2022-10-30T12:23:39.968Z,22.99
2022-10-30T12:24:39.974Z,23.02
2022-10-30T12:25:39.954Z,22.99
2022-10-30T12:26:39.940Z,23.04
2022-10-30T12:27:39.929Z,23.04
2022-10-30T12:28:39.912Z,23.04
2022-10-30T12:30:06.988Z,23.01
2022-10-30T12:30:39.893Z,22.99
2022-10-30T12:31:39.923Z,23.04
2022-10-30T12:32:39.896Z,23.04
2022-10-30T12:33:39.832Z,23.08
2022-10-30T12:34:39.847Z,23.12
2022-10-30T12:35:39.904Z,23.20
2022-10-30T12:36:39.801Z,23.23
2022-10-30T12:37:39.785Z,23.23
2022-10-30T12:38:39.790Z,23.26
2022-10-30T12:39:39.775Z,23.27
2022-10-30T12:40:39.764Z,23.32
2022-10-30T12:41:39.753Z,23.32
2022-10-30T12:42:39.728Z,23.34
2022-10-30T12:43:39.714Z,23.39
2022-10-30T12:44:39.707Z,23.39
2022-10-30T12:45:39.697Z,23.35
2022-10-30T12:46:39.679Z,23.39
2022-10-30T12:47:39.679Z,23.39
2022-10-30T12:48:39.648Z,23.43
2022-10-30T12:49:39.636Z,23.45
2022-10-30T12:50:39.644Z,23.45
2022-10-30T12:51:39.604Z,23.43
2022-10-30T12:52:39.590Z,23.49
2022-10-30T12:53:39.578Z,23.49
2022-10-30T12:54:39.598Z,23.50